Accueil
METAR-TAF:

METAR-TAF

Aéroports :

Quakertown Airport

Quakertown, Pennsylvanie, États-Unis

latitude: 40-26-06N, longitude: 075-22-54W, altitude: 160 m

Observation

Le bulletin a été fait il y a 8 minutes, à 23:35 UTC
Vent calme
Température 27°C
Humidité 51%
Pression 1009 hPa
Visibilité: 16.1 km
Ciel clair

METAR: KUKT 212335Z AUTO 00000KT 10SM CLR 27/16 A2981 RMK A01

Heure: 19:43 (23:43 UTC)


TAF: absent

Observations et prévisions météorologiques de plus de 4000 aéroports (messages METAR et TAF).

Les stations disponibles sont représentées par des disques jaunes et rouges sur la carte.

Passer la souris dessus pour voir le nom de la station.

Cliquer dessus pour voir les observations et prévisions météorologiques.

Pour changer de carte: cliquez sur les boutons verts avec une croix noire pour zoomer, sur le bouton vert avec un tiret pour effectuer un zoom arrière, ou sur les flèches vertes pour les cartes adjacentes.


METAR-TAF: